sensor_id;sensor_type;location;lat;lon;timestamp;temperature;humidity
22471;DHT22;11402;51.374;6.594;2023-06-14T00:00:20;19.20;47.20
22471;DHT22;11402;51.374;6.594;2023-06-14T00:02:46;19.10;99.90
22471;DHT22;11402;51.374;6.594;2023-06-14T00:05:11;19.30;99.90
22471;DHT22;11402;51.374;6.594;2023-06-14T00:07:39;19.30;99.90
22471;DHT22;11402;51.374;6.594;2023-06-14T00:10:12;19.40;99.90
22471;DHT22;11402;51.374;6.594;2023-06-14T00:12:38;19.40;99.90
22471;DHT22;11402;51.374;6.594;2023-06-14T00:15:05;19.00;99.90
22471;DHT22;11402;51.374;6.594;2023-06-14T00:17:31;19.00;1.00
22471;DHT22;11402;51.374;6.594;2023-06-14T00:20:00;18.80;1.00
22471;DHT22;11402;51.374;6.594;2023-06-14T00:22:25;18.50;99.90
22471;DHT22;11402;51.374;6.594;2023-06-14T00:24:54;18.30;1.00
22471;DHT22;11402;51.374;6.594;2023-06-14T00:27:20;18.70;99.90
22471;DHT22;11402;51.374;6.594;2023-06-14T00:29:45;18.50;99.90
22471;DHT22;11402;51.374;6.594;2023-06-14T00:32:11;18.60;99.90
22471;DHT22;11402;51.374;6.594;2023-06-14T00:34:36;18.00;1.00
22471;DHT22;11402;51.374;6.594;2023-06-14T00:37:02;18.00;1.00
22471;DHT22;11402;51.374;6.594;2023-06-14T00:39:28;17.90;99.90
22471;DHT22;11402;51.374;6.594;2023-06-14T00:41:53;17.90;1.00
22471;DHT22;11402;51.374;6.594;2023-06-14T00:44:19;17.70;99.90
22471;DHT22;11402;51.374;6.594;2023-06-14T00:46:45;17.70;99.90
22471;DHT22;11402;51.374;6.594;2023-06-14T00:49:12;17.60;99.90
22471;DHT22;11402;51.374;6.594;2023-06-14T00:51:40;17.60;99.90
22471;DHT22;11402;51.374;6.594;2023-06-14T00:54:06;17.60;99.90
22471;DHT22;11402;51.374;6.594;2023-06-14T00:56:32;17.60;99.90
22471;DHT22;11402;51.374;6.594;2023-06-14T00:58:57;17.50;99.90
22471;DHT22;11402;51.374;6.594;2023-06-14T01:01:24;17.40;99.90
22471;DHT22;11402;51.374;6.594;2023-06-14T01:03:50;17.20;99.90
22471;DHT22;11402;51.374;6.594;2023-06-14T01:06:33;17.30;99.90
22471;DHT22;11402;51.374;6.594;2023-06-14T01:09:10;17.10;99.90
22471;DHT22;11402;51.374;6.594;2023-06-14T01:12:01;17.50;99.90
22471;DHT22;11402;51.374;6.594;2023-06-14T01:14:31;17.70;99.90
22471;DHT22;11402;51.374;6.594;2023-06-14T01:16:58;17.90;99.90
22471;DHT22;11402;51.374;6.594;2023-06-14T01:19:25;17.90;99.90
22471;DHT22;11402;51.374;6.594;2023-06-14T01:21:54;18.00;99.90
22471;DHT22;11402;51.374;6.594;2023-06-14T01:24:20;18.00;99.90
22471;DHT22;11402;51.374;6.594;2023-06-14T01:26:53;18.00;99.90
22471;DHT22;11402;51.374;6.594;2023-06-14T01:29:22;18.00;99.90
22471;DHT22;11402;51.374;6.594;2023-06-14T01:31:49;18.00;99.90
22471;DHT22;11402;51.374;6.594;2023-06-14T01:34:15;18.10;99.90
22471;DHT22;11402;51.374;6.594;2023-06-14T01:36:43;18.00;99.90
22471;DHT22;11402;51.374;6.594;2023-06-14T01:39:12;18.00;99.90
22471;DHT22;11402;51.374;6.594;2023-06-14T01:41:40;18.00;99.90
22471;DHT22;11402;51.374;6.594;2023-06-14T01:44:06;18.10;99.90
22471;DHT22;11402;51.374;6.594;2023-06-14T01:46:32;18.10;99.90
22471;DHT22;11402;51.374;6.594;2023-06-14T01:48:58;18.10;99.90
22471;DHT22;11402;51.374;6.594;2023-06-14T01:51:24;18.20;99.90
22471;DHT22;11402;51.374;6.594;2023-06-14T01:53:50;18.20;99.90
22471;DHT22;11402;51.374;6.594;2023-06-14T01:56:15;18.40;99.90
22471;DHT22;11402;51.374;6.594;2023-06-14T01:58:41;18.60;99.90
22471;DHT22;11402;51.374;6.594;2023-06-14T02:01:07;18.60;99.90
22471;DHT22;11402;51.374;6.594;2023-06-14T02:03:33;18.50;99.90
22471;DHT22;11402;51.374;6.594;2023-06-14T02:05:59;18.40;99.90
22471;DHT22;11402;51.374;6.594;2023-06-14T02:08:25;18.40;99.90
22471;DHT22;11402;51.374;6.594;2023-06-14T02:10:51;18.30;99.90
22471;DHT22;11402;51.374;6.594;2023-06-14T02:13:17;18.20;99.90
22471;DHT22;11402;51.374;6.594;2023-06-14T02:15:42;18.30;99.90
22471;DHT22;11402;51.374;6.594;2023-06-14T02:18:09;18.20;99.90
22471;DHT22;11402;51.374;6.594;2023-06-14T02:20:35;18.20;99.90
22471;DHT22;11402;51.374;6.594;2023-06-14T02:23:01;18.30;99.90
22471;DHT22;11402;51.374;6.594;2023-06-14T02:25:27;18.30;99.90
22471;DHT22;11402;51.374;6.594;2023-06-14T02:27:55;18.10;99.90
22471;DHT22;11402;51.374;6.594;2023-06-14T02:30:21;18.00;99.90
22471;DHT22;11402;51.374;6.594;2023-06-14T02:32:47;17.90;99.90
22471;DHT22;11402;51.374;6.594;2023-06-14T02:35:14;17.70;99.90
22471;DHT22;11402;51.374;6.594;2023-06-14T02:37:40;17.80;99.90
22471;DHT22;11402;51.374;6.594;2023-06-14T02:40:06;18.00;99.90
22471;DHT22;11402;51.374;6.594;2023-06-14T02:42:32;18.00;99.90
22471;DHT22;11402;51.374;6.594;2023-06-14T02:44:57;18.00;99.90
22471;DHT22;11402;51.374;6.594;2023-06-14T02:47:23;18.00;99.90
22471;DHT22;11402;51.374;6.594;2023-06-14T02:49:49;17.80;99.90
22471;DHT22;11402;51.374;6.594;2023-06-14T02:52:15;17.70;99.90
22471;DHT22;11402;51.374;6.594;2023-06-14T02:54:41;17.70;99.90
22471;DHT22;11402;51.374;6.594;2023-06-14T02:57:07;17.80;99.90
22471;DHT22;11402;51.374;6.594;2023-06-14T02:59:34;17.60;99.90
22471;DHT22;11402;51.374;6.594;2023-06-14T03:01:59;17.50;99.90
22471;DHT22;11402;51.374;6.594;2023-06-14T03:04:25;17.40;99.90
22471;DHT22;11402;51.374;6.594;2023-06-14T03:06:52;17.40;99.90
22471;DHT22;11402;51.374;6.594;2023-06-14T03:09:19;17.50;99.90
22471;DHT22;11402;51.374;6.594;2023-06-14T03:11:45;18.20;99.90
22471;DHT22;11402;51.374;6.594;2023-06-14T03:14:10;17.20;99.90
22471;DHT22;11402;51.374;6.594;2023-06-14T03:16:37;17.20;99.90
22471;DHT22;11402;51.374;6.594;2023-06-14T03:19:02;17.00;99.90
22471;DHT22;11402;51.374;6.594;2023-06-14T03:21:28;16.90;99.90
22471;DHT22;11402;51.374;6.594;2023-06-14T03:23:54;16.90;99.90
22471;DHT22;11402;51.374;6.594;2023-06-14T03:26:19;16.70;99.90
22471;DHT22;11402;51.374;6.594;2023-06-14T03:28:45;16.50;99.90
22471;DHT22;11402;51.374;6.594;2023-06-14T03:31:12;16.60;99.90
22471;DHT22;11402;51.374;6.594;2023-06-14T03:33:38;16.50;99.90
22471;DHT22;11402;51.374;6.594;2023-06-14T03:36:04;16.50;99.90
22471;DHT22;11402;51.374;6.594;2023-06-14T03:38:30;16.40;99.90
22471;DHT22;11402;51.374;6.594;2023-06-14T03:40:56;16.40;99.90
22471;DHT22;11402;51.374;6.594;2023-06-14T03:43:22;16.30;99.90
22471;DHT22;11402;51.374;6.594;2023-06-14T03:45:47;16.30;99.90
22471;DHT22;11402;51.374;6.594;2023-06-14T03:48:13;16.30;99.90
22471;DHT22;11402;51.374;6.594;2023-06-14T03:50:38;16.30;99.90
22471;DHT22;11402;51.374;6.594;2023-06-14T03:53:04;16.40;99.90
22471;DHT22;11402;51.374;6.594;2023-06-14T03:55:30;16.10;1.00
22471;DHT22;11402;51.374;6.594;2023-06-14T03:57:59;16.20;99.90
22471;DHT22;11402;51.374;6.594;2023-06-14T04:00:25;16.30;99.90
22471;DHT22;11402;51.374;6.594;2023-06-14T04:02:50;16.30;99.90
22471;DHT22;11402;51.374;6.594;2023-06-14T04:05:16;16.30;99.90
22471;DHT22;11402;51.374;6.594;2023-06-14T04:07:44;16.10;99.90
22471;DHT22;11402;51.374;6.594;2023-06-14T04:10:12;16.40;99.90
22471;DHT22;11402;51.374;6.594;2023-06-14T04:12:38;16.70;99.90
22471;DHT22;11402;51.374;6.594;2023-06-14T04:15:04;16.80;99.90
22471;DHT22;11402;51.374;6.594;2023-06-14T04:17:31;16.70;99.90
22471;DHT22;11402;51.374;6.594;2023-06-14T04:20:01;16.70;99.90
22471;DHT22;11402;51.374;6.594;2023-06-14T04:22:28;16.60;99.90
22471;DHT22;11402;51.374;6.594;2023-06-14T04:24:54;16.80;99.90
22471;DHT22;11402;51.374;6.594;2023-06-14T04:27:23;16.90;99.90
22471;DHT22;11402;51.374;6.594;2023-06-14T04:29:52;17.10;99.90
22471;DHT22;11402;51.374;6.594;2023-06-14T04:32:28;17.10;99.90
22471;DHT22;11402;51.374;6.594;2023-06-14T04:34:59;17.10;99.90
22471;DHT22;11402;51.374;6.594;2023-06-14T04:37:27;17.20;99.90
22471;DHT22;11402;51.374;6.594;2023-06-14T04:39:55;17.20;99.90
22471;DHT22;11402;51.374;6.594;2023-06-14T04:42:21;17.30;99.90
22471;DHT22;11402;51.374;6.594;2023-06-14T04:44:51;17.40;99.90
22471;DHT22;11402;51.374;6.594;2023-06-14T04:47:17;17.60;99.90
22471;DHT22;11402;51.374;6.594;2023-06-14T04:49:42;17.70;99.90
22471;DHT22;11402;51.374;6.594;2023-06-14T04:52:08;17.80;99.90
22471;DHT22;11402;51.374;6.594;2023-06-14T04:54:36;17.90;99.90
22471;DHT22;11402;51.374;6.594;2023-06-14T04:57:04;18.00;99.90
22471;DHT22;11402;51.374;6.594;2023-06-14T04:59:31;18.20;99.90
22471;DHT22;11402;51.374;6.594;2023-06-14T05:01:59;18.30;99.90
22471;DHT22;11402;51.374;6.594;2023-06-14T05:04:25;18.40;99.90
22471;DHT22;11402;51.374;6.594;2023-06-14T05:06:53;18.40;99.90
22471;DHT22;11402;51.374;6.594;2023-06-14T05:09:20;18.40;99.90
22471;DHT22;11402;51.374;6.594;2023-06-14T05:11:46;18.50;99.90
22471;DHT22;11402;51.374;6.594;2023-06-14T05:14:13;18.50;99.90
22471;DHT22;11402;51.374;6.594;2023-06-14T05:16:39;18.80;99.90
22471;DHT22;11402;51.374;6.594;2023-06-14T05:19:05;18.80;99.90
22471;DHT22;11402;51.374;6.594;2023-06-14T05:21:31;18.80;99.90
22471;DHT22;11402;51.374;6.594;2023-06-14T05:24:00;18.90;99.90
22471;DHT22;11402;51.374;6.594;2023-06-14T05:26:26;18.80;99.90
22471;DHT22;11402;51.374;6.594;2023-06-14T05:28:56;19.00;99.90
22471;DHT22;11402;51.374;6.594;2023-06-14T05:31:26;19.00;99.90
22471;DHT22;11402;51.374;6.594;2023-06-14T05:33:52;19.10;99.90
22471;DHT22;11402;51.374;6.594;2023-06-14T05:36:18;19.30;99.90
22471;DHT22;11402;51.374;6.594;2023-06-14T05:38:45;19.50;99.90
22471;DHT22;11402;51.374;6.594;2023-06-14T05:41:11;19.50;99.90
22471;DHT22;11402;51.374;6.594;2023-06-14T05:43:36;19.30;99.90
22471;DHT22;11402;51.374;6.594;2023-06-14T05:46:02;19.60;99.90
22471;DHT22;11402;51.374;6.594;2023-06-14T05:48:28;19.90;99.90
22471;DHT22;11402;51.374;6.594;2023-06-14T05:50:54;19.50;99.90
22471;DHT22;11402;51.374;6.594;2023-06-14T05:53:20;19.40;99.90
22471;DHT22;11402;51.374;6.594;2023-06-14T05:55:45;19.60;99.90
22471;DHT22;11402;51.374;6.594;2023-06-14T05:58:11;19.90;99.90
22471;DHT22;11402;51.374;6.594;2023-06-14T06:00:38;20.00;99.90
22471;DHT22;11402;51.374;6.594;2023-06-14T06:03:03;20.10;99.90
22471;DHT22;11402;51.374;6.594;2023-06-14T06:05:30;20.00;99.90
22471;DHT22;11402;51.374;6.594;2023-06-14T06:07:55;20.10;99.90
22471;DHT22;11402;51.374;6.594;2023-06-14T06:10:21;20.10;99.90
22471;DHT22;11402;51.374;6.594;2023-06-14T06:12:47;20.20;99.90
22471;DHT22;11402;51.374;6.594;2023-06-14T06:15:14;20.60;99.90
22471;DHT22;11402;51.374;6.594;2023-06-14T06:17:40;20.60;99.90
22471;DHT22;11402;51.374;6.594;2023-06-14T06:20:06;20.70;99.90
22471;DHT22;11402;51.374;6.594;2023-06-14T06:22:34;20.80;99.90
22471;DHT22;11402;51.374;6.594;2023-06-14T06:24:59;20.90;99.90
22471;DHT22;11402;51.374;6.594;2023-06-14T06:27:25;21.00;99.90
22471;DHT22;11402;51.374;6.594;2023-06-14T06:29:51;21.00;99.90
22471;DHT22;11402;51.374;6.594;2023-06-14T06:32:17;21.00;99.90
22471;DHT22;11402;51.374;6.594;2023-06-14T06:34:43;21.00;99.90
22471;DHT22;11402;51.374;6.594;2023-06-14T06:37:09;21.70;99.90
22471;DHT22;11402;51.374;6.594;2023-06-14T06:39:34;21.50;99.90
22471;DHT22;11402;51.374;6.594;2023-06-14T06:42:00;21.50;99.90
22471;DHT22;11402;51.374;6.594;2023-06-14T06:44:26;21.60;99.90
22471;DHT22;11402;51.374;6.594;2023-06-14T06:46:51;21.60;99.90
22471;DHT22;11402;51.374;6.594;2023-06-14T06:49:17;21.50;99.90
22471;DHT22;11402;51.374;6.594;2023-06-14T06:51:44;21.60;99.90
22471;DHT22;11402;51.374;6.594;2023-06-14T06:54:24;21.90;99.90
22471;DHT22;11402;51.374;6.594;2023-06-14T06:59:16;21.80;94.10
22471;DHT22;11402;51.374;6.594;2023-06-14T07:01:42;21.90;92.40
22471;DHT22;11402;51.374;6.594;2023-06-14T07:04:07;22.00;90.70
22471;DHT22;11402;51.374;6.594;2023-06-14T07:06:33;21.90;91.10
22471;DHT22;11402;51.374;6.594;2023-06-14T07:08:59;22.10;91.60
22471;DHT22;11402;51.374;6.594;2023-06-14T07:11:27;22.10;90.70
22471;DHT22;11402;51.374;6.594;2023-06-14T07:13:52;22.20;91.10
22471;DHT22;11402;51.374;6.594;2023-06-14T07:16:18;21.80;90.50
22471;DHT22;11402;51.374;6.594;2023-06-14T07:18:44;21.80;89.20
22471;DHT22;11402;51.374;6.594;2023-06-14T07:21:09;21.70;89.50
22471;DHT22;11402;51.374;6.594;2023-06-14T07:23:35;21.80;90.30
22471;DHT22;11402;51.374;6.594;2023-06-14T07:26:00;21.80;88.90
22471;DHT22;11402;51.374;6.594;2023-06-14T07:28:26;22.00;88.40
22471;DHT22;11402;51.374;6.594;2023-06-14T07:30:52;21.80;90.20
22471;DHT22;11402;51.374;6.594;2023-06-14T07:33:17;22.00;87.50
22471;DHT22;11402;51.374;6.594;2023-06-14T07:35:43;21.90;86.70
22471;DHT22;11402;51.374;6.594;2023-06-14T07:38:08;21.80;83.20
22471;DHT22;11402;51.374;6.594;2023-06-14T07:40:34;21.60;83.90
22471;DHT22;11402;51.374;6.594;2023-06-14T07:42:59;21.60;82.90
22471;DHT22;11402;51.374;6.594;2023-06-14T07:45:26;21.80;83.70
22471;DHT22;11402;51.374;6.594;2023-06-14T07:47:52;21.70;82.30
22471;DHT22;11402;51.374;6.594;2023-06-14T07:50:18;21.90;83.00
22471;DHT22;11402;51.374;6.594;2023-06-14T07:52:44;22.00;81.80
22471;DHT22;11402;51.374;6.594;2023-06-14T07:55:10;22.20;82.20
22471;DHT22;11402;51.374;6.594;2023-06-14T07:57:36;22.40;81.30
22471;DHT22;11402;51.374;6.594;2023-06-14T08:00:02;22.60;79.60
22471;DHT22;11402;51.374;6.594;2023-06-14T08:02:31;22.60;77.10
22471;DHT22;11402;51.374;6.594;2023-06-14T08:04:56;22.50;74.60
22471;DHT22;11402;51.374;6.594;2023-06-14T08:07:22;22.40;76.20
22471;DHT22;11402;51.374;6.594;2023-06-14T08:09:48;22.80;74.80
22471;DHT22;11402;51.374;6.594;2023-06-14T08:12:13;22.90;73.80
22471;DHT22;11402;51.374;6.594;2023-06-14T08:14:39;23.00;73.40
22471;DHT22;11402;51.374;6.594;2023-06-14T08:17:05;22.80;72.20
22471;DHT22;11402;51.374;6.594;2023-06-14T08:19:31;22.70;70.40
22471;DHT22;11402;51.374;6.594;2023-06-14T08:21:56;22.90;70.50
22471;DHT22;11402;51.374;6.594;2023-06-14T08:24:22;22.90;70.30
22471;DHT22;11402;51.374;6.594;2023-06-14T08:26:53;22.90;71.80
22471;DHT22;11402;51.374;6.594;2023-06-14T08:29:19;22.70;68.50
22471;DHT22;11402;51.374;6.594;2023-06-14T08:31:45;22.40;67.70
22471;DHT22;11402;51.374;6.594;2023-06-14T08:34:11;22.30;69.50
22471;DHT22;11402;51.374;6.594;2023-06-14T08:36:37;22.60;73.90
22471;DHT22;11402;51.374;6.594;2023-06-14T08:39:02;22.40;73.90
22471;DHT22;11402;51.374;6.594;2023-06-14T08:41:28;22.70;74.80
22471;DHT22;11402;51.374;6.594;2023-06-14T08:43:55;23.00;70.70
22471;DHT22;11402;51.374;6.594;2023-06-14T08:46:21;23.00;72.10
22471;DHT22;11402;51.374;6.594;2023-06-14T08:48:51;23.10;71.90
22471;DHT22;11402;51.374;6.594;2023-06-14T08:51:20;23.60;72.00
22471;DHT22;11402;51.374;6.594;2023-06-14T08:53:55;22.80;71.80
22471;DHT22;11402;51.374;6.594;2023-06-14T08:56:28;22.90;69.30
22471;DHT22;11402;51.374;6.594;2023-06-14T08:58:54;22.80;71.30
22471;DHT22;11402;51.374;6.594;2023-06-14T09:01:22;22.80;73.90
22471;DHT22;11402;51.374;6.594;2023-06-14T09:03:49;22.90;74.30
22471;DHT22;11402;51.374;6.594;2023-06-14T09:06:15;23.10;71.80
22471;DHT22;11402;51.374;6.594;2023-06-14T09:08:45;23.20;74.30
22471;DHT22;11402;51.374;6.594;2023-06-14T09:11:12;23.50;75.30
22471;DHT22;11402;51.374;6.594;2023-06-14T09:13:41;23.30;71.10
22471;DHT22;11402;51.374;6.594;2023-06-14T09:16:07;22.40;70.80
22471;DHT22;11402;51.374;6.594;2023-06-14T09:18:41;22.30;72.10
22471;DHT22;11402;51.374;6.594;2023-06-14T09:21:09;22.40;71.20
22471;DHT22;11402;51.374;6.594;2023-06-14T09:23:45;22.20;74.60
22471;DHT22;11402;51.374;6.594;2023-06-14T09:26:16;22.60;74.60
22471;DHT22;11402;51.374;6.594;2023-06-14T09:28:42;22.70;74.20
22471;DHT22;11402;51.374;6.594;2023-06-14T09:31:11;22.90;74.10
22471;DHT22;11402;51.374;6.594;2023-06-14T09:33:37;23.10;73.60
22471;DHT22;11402;51.374;6.594;2023-06-14T09:36:04;23.30;72.80
22471;DHT22;11402;51.374;6.594;2023-06-14T09:38:29;23.00;72.20
22471;DHT22;11402;51.374;6.594;2023-06-14T09:40:58;22.80;72.90
22471;DHT22;11402;51.374;6.594;2023-06-14T09:43:24;22.70;75.20
22471;DHT22;11402;51.374;6.594;2023-06-14T09:45:51;23.10;73.60
22471;DHT22;11402;51.374;6.594;2023-06-14T09:48:17;23.50;72.40
22471;DHT22;11402;51.374;6.594;2023-06-14T09:50:45;23.30;74.70
22471;DHT22;11402;51.374;6.594;2023-06-14T09:53:13;23.30;72.80
22471;DHT22;11402;51.374;6.594;2023-06-14T09:55:40;23.50;72.40
22471;DHT22;11402;51.374;6.594;2023-06-14T09:58:07;23.50;73.10
22471;DHT22;11402;51.374;6.594;2023-06-14T10:00:34;23.30;71.20
22471;DHT22;11402;51.374;6.594;2023-06-14T10:03:14;23.20;70.00
22471;DHT22;11402;51.374;6.594;2023-06-14T10:05:44;22.90;70.60
22471;DHT22;11402;51.374;6.594;2023-06-14T10:08:23;23.20;69.50
22471;DHT22;11402;51.374;6.594;2023-06-14T10:10:51;23.40;68.10
22471;DHT22;11402;51.374;6.594;2023-06-14T10:13:17;23.40;69.80
22471;DHT22;11402;51.374;6.594;2023-06-14T10:16:00;23.50;69.00
22471;DHT22;11402;51.374;6.594;2023-06-14T10:24:07;22.70;67.20
22471;DHT22;11402;51.374;6.594;2023-06-14T10:26:33;23.10;65.60
22471;DHT22;11402;51.374;6.594;2023-06-14T10:29:08;23.20;66.40
22471;DHT22;11402;51.374;6.594;2023-06-14T10:31:45;23.00;66.50
22471;DHT22;11402;51.374;6.594;2023-06-14T10:34:12;23.10;66.10
22471;DHT22;11402;51.374;6.594;2023-06-14T10:36:41;22.90;66.70
22471;DHT22;11402;51.374;6.594;2023-06-14T10:39:13;23.20;67.40
22471;DHT22;11402;51.374;6.594;2023-06-14T10:41:41;23.00;64.40
22471;DHT22;11402;51.374;6.594;2023-06-14T10:46:48;22.60;73.70
22471;DHT22;11402;51.374;6.594;2023-06-14T10:49:18;22.90;74.60
22471;DHT22;11402;51.374;6.594;2023-06-14T10:51:46;22.80;75.80
22471;DHT22;11402;51.374;6.594;2023-06-14T10:54:20;23.10;68.40
22471;DHT22;11402;51.374;6.594;2023-06-14T10:56:50;23.30;66.30
22471;DHT22;11402;51.374;6.594;2023-06-14T10:59:17;23.20;65.80
22471;DHT22;11402;51.374;6.594;2023-06-14T11:04:12;23.20;67.50
22471;DHT22;11402;51.374;6.594;2023-06-14T11:06:48;23.10;66.80
22471;DHT22;11402;51.374;6.594;2023-06-14T11:09:26;23.30;66.60
22471;DHT22;11402;51.374;6.594;2023-06-14T11:12:01;23.50;62.00
22471;DHT22;11402;51.374;6.594;2023-06-14T11:14:30;23.70;63.40
22471;DHT22;11402;51.374;6.594;2023-06-14T11:16:56;23.50;63.00
22471;DHT22;11402;51.374;6.594;2023-06-14T11:19:22;23.50;61.00
22471;DHT22;11402;51.374;6.594;2023-06-14T11:21:48;23.00;62.00
22471;DHT22;11402;51.374;6.594;2023-06-14T11:24:14;23.10;62.60
22471;DHT22;11402;51.374;6.594;2023-06-14T11:26:40;22.80;60.70
22471;DHT22;11402;51.374;6.594;2023-06-14T11:29:06;23.10;62.20
22471;DHT22;11402;51.374;6.594;2023-06-14T11:31:32;23.40;63.10
22471;DHT22;11402;51.374;6.594;2023-06-14T11:33:58;22.80;61.90
22471;DHT22;11402;51.374;6.594;2023-06-14T11:36:34;22.90;62.10
22471;DHT22;11402;51.374;6.594;2023-06-14T11:39:02;22.90;62.00
22471;DHT22;11402;51.374;6.594;2023-06-14T11:41:39;22.70;63.20
22471;DHT22;11402;51.374;6.594;2023-06-14T11:44:05;22.90;63.80
22471;DHT22;11402;51.374;6.594;2023-06-14T11:46:31;23.00;63.50
22471;DHT22;11402;51.374;6.594;2023-06-14T11:48:57;23.00;63.70
22471;DHT22;11402;51.374;6.594;2023-06-14T11:51:23;23.30;64.40
22471;DHT22;11402;51.374;6.594;2023-06-14T11:53:49;23.60;66.90
22471;DHT22;11402;51.374;6.594;2023-06-14T11:56:15;23.60;64.10
22471;DHT22;11402;51.374;6.594;2023-06-14T11:58:43;23.60;64.90
22471;DHT22;11402;51.374;6.594;2023-06-14T12:01:08;23.70;64.70
22471;DHT22;11402;51.374;6.594;2023-06-14T12:03:34;23.90;65.30
22471;DHT22;11402;51.374;6.594;2023-06-14T12:06:04;23.40;61.90
22471;DHT22;11402;51.374;6.594;2023-06-14T12:08:37;23.40;64.30
22471;DHT22;11402;51.374;6.594;2023-06-14T12:11:07;23.30;64.70
22471;DHT22;11402;51.374;6.594;2023-06-14T12:13:38;23.40;65.70
22471;DHT22;11402;51.374;6.594;2023-06-14T12:16:10;23.50;65.80
22471;DHT22;11402;51.374;6.594;2023-06-14T12:21:04;23.80;62.60
22471;DHT22;11402;51.374;6.594;2023-06-14T12:23:48;23.80;65.70
22471;DHT22;11402;51.374;6.594;2023-06-14T12:26:18;23.40;64.30
22471;DHT22;11402;51.374;6.594;2023-06-14T12:28:47;23.30;65.90
22471;DHT22;11402;51.374;6.594;2023-06-14T12:31:15;23.20;64.30
22471;DHT22;11402;51.374;6.594;2023-06-14T12:33:42;23.30;66.00
22471;DHT22;11402;51.374;6.594;2023-06-14T12:36:09;23.50;65.10
22471;DHT22;11402;51.374;6.594;2023-06-14T12:38:36;23.60;64.70
22471;DHT22;11402;51.374;6.594;2023-06-14T12:41:02;23.70;66.50
22471;DHT22;11402;51.374;6.594;2023-06-14T12:43:27;23.80;66.30
22471;DHT22;11402;51.374;6.594;2023-06-14T12:45:53;23.50;66.10
22471;DHT22;11402;51.374;6.594;2023-06-14T12:48:19;23.70;66.10
22471;DHT22;11402;51.374;6.594;2023-06-14T12:50:45;23.70;66.10
22471;DHT22;11402;51.374;6.594;2023-06-14T12:53:11;23.90;67.20
22471;DHT22;11402;51.374;6.594;2023-06-14T12:55:36;23.70;66.90
22471;DHT22;11402;51.374;6.594;2023-06-14T12:58:02;23.80;67.30
22471;DHT22;11402;51.374;6.594;2023-06-14T13:00:27;23.90;67.20
22471;DHT22;11402;51.374;6.594;2023-06-14T13:02:56;24.00;65.60
22471;DHT22;11402;51.374;6.594;2023-06-14T13:05:22;24.00;67.90
22471;DHT22;11402;51.374;6.594;2023-06-14T13:07:47;23.50;65.90
22471;DHT22;11402;51.374;6.594;2023-06-14T13:10:13;23.80;67.50
22471;DHT22;11402;51.374;6.594;2023-06-14T13:12:38;23.90;65.00
22471;DHT22;11402;51.374;6.594;2023-06-14T13:15:04;23.90;65.90
22471;DHT22;11402;51.374;6.594;2023-06-14T13:17:30;23.80;66.20
22471;DHT22;11402;51.374;6.594;2023-06-14T13:19:58;23.90;65.20
22471;DHT22;11402;51.374;6.594;2023-06-14T13:22:25;23.90;66.00
22471;DHT22;11402;51.374;6.594;2023-06-14T13:24:50;24.00;66.50
22471;DHT22;11402;51.374;6.594;2023-06-14T13:27:16;24.20;68.50
22471;DHT22;11402;51.374;6.594;2023-06-14T13:29:42;24.00;66.50
22471;DHT22;11402;51.374;6.594;2023-06-14T13:32:07;24.10;66.20
22471;DHT22;11402;51.374;6.594;2023-06-14T13:34:33;24.10;65.10
22471;DHT22;11402;51.374;6.594;2023-06-14T13:36:58;24.20;67.20
22471;DHT22;11402;51.374;6.594;2023-06-14T13:39:25;24.20;66.60
22471;DHT22;11402;51.374;6.594;2023-06-14T13:41:50;24.00;68.70
22471;DHT22;11402;51.374;6.594;2023-06-14T13:44:16;24.10;72.10
22471;DHT22;11402;51.374;6.594;2023-06-14T13:46:44;24.10;67.40
22471;DHT22;11402;51.374;6.594;2023-06-14T13:49:10;24.10;65.50
22471;DHT22;11402;51.374;6.594;2023-06-14T13:51:36;24.00;66.00
22471;DHT22;11402;51.374;6.594;2023-06-14T13:54:01;24.20;64.40
22471;DHT22;11402;51.374;6.594;2023-06-14T13:56:27;24.40;67.50
22471;DHT22;11402;51.374;6.594;2023-06-14T13:58:53;24.50;69.60
22471;DHT22;11402;51.374;6.594;2023-06-14T14:01:18;24.40;73.20
22471;DHT22;11402;51.374;6.594;2023-06-14T14:03:46;24.40;77.30
22471;DHT22;11402;51.374;6.594;2023-06-14T14:06:12;24.30;72.70
22471;DHT22;11402;51.374;6.594;2023-06-14T14:08:38;24.40;67.30
22471;DHT22;11402;51.374;6.594;2023-06-14T14:11:05;24.20;67.30
22471;DHT22;11402;51.374;6.594;2023-06-14T14:13:31;24.20;65.20
22471;DHT22;11402;51.374;6.594;2023-06-14T14:15:57;24.10;63.10
22471;DHT22;11402;51.374;6.594;2023-06-14T14:18:22;24.30;63.90
22471;DHT22;11402;51.374;6.594;2023-06-14T14:20:48;24.30;63.10
22471;DHT22;11402;51.374;6.594;2023-06-14T14:23:14;24.40;62.50
22471;DHT22;11402;51.374;6.594;2023-06-14T14:25:40;24.50;67.90
22471;DHT22;11402;51.374;6.594;2023-06-14T14:28:05;24.50;70.90
22471;DHT22;11402;51.374;6.594;2023-06-14T14:30:31;24.60;73.10
22471;DHT22;11402;51.374;6.594;2023-06-14T14:32:56;24.70;72.30
22471;DHT22;11402;51.374;6.594;2023-06-14T14:35:22;24.70;76.00
22471;DHT22;11402;51.374;6.594;2023-06-14T14:37:49;24.60;76.10
22471;DHT22;11402;51.374;6.594;2023-06-14T14:40:15;24.60;71.00
22471;DHT22;11402;51.374;6.594;2023-06-14T14:42:41;24.60;72.50
22471;DHT22;11402;51.374;6.594;2023-06-14T14:45:07;24.30;62.90
22471;DHT22;11402;51.374;6.594;2023-06-14T14:47:32;24.30;65.60
22471;DHT22;11402;51.374;6.594;2023-06-14T14:49:58;24.30;62.60
22471;DHT22;11402;51.374;6.594;2023-06-14T14:52:23;24.30;62.30
22471;DHT22;11402;51.374;6.594;2023-06-14T14:54:50;24.20;64.90
22471;DHT22;11402;51.374;6.594;2023-06-14T14:57:16;24.20;65.60
22471;DHT22;11402;51.374;6.594;2023-06-14T14:59:41;24.20;65.70
22471;DHT22;11402;51.374;6.594;2023-06-14T15:02:07;24.20;66.40
22471;DHT22;11402;51.374;6.594;2023-06-14T15:04:32;24.10;65.40
22471;DHT22;11402;51.374;6.594;2023-06-14T15:06:58;24.10;64.70
22471;DHT22;11402;51.374;6.594;2023-06-14T15:09:23;24.30;64.60
22471;DHT22;11402;51.374;6.594;2023-06-14T15:11:49;24.30;65.20
22471;DHT22;11402;51.374;6.594;2023-06-14T15:14:14;24.20;65.10
22471;DHT22;11402;51.374;6.594;2023-06-14T15:16:40;24.30;65.40
22471;DHT22;11402;51.374;6.594;2023-06-14T15:19:06;24.20;70.50
22471;DHT22;11402;51.374;6.594;2023-06-14T15:21:32;24.10;68.40
22471;DHT22;11402;51.374;6.594;2023-06-14T15:23:57;24.10;67.60
22471;DHT22;11402;51.374;6.594;2023-06-14T15:26:23;24.20;68.10
22471;DHT22;11402;51.374;6.594;2023-06-14T15:28:50;24.30;68.80
22471;DHT22;11402;51.374;6.594;2023-06-14T15:31:15;24.40;68.10
22471;DHT22;11402;51.374;6.594;2023-06-14T15:33:41;24.50;67.30
22471;DHT22;11402;51.374;6.594;2023-06-14T15:36:07;24.50;67.40
22471;DHT22;11402;51.374;6.594;2023-06-14T15:38:35;24.40;68.40
22471;DHT22;11402;51.374;6.594;2023-06-14T15:41:00;24.40;68.30
22471;DHT22;11402;51.374;6.594;2023-06-14T15:43:26;24.40;69.60